createdAt,value
2018-12-12T00:02:21.356Z,5.50
2018-12-12T00:04:49.688Z,5.40
2018-12-12T00:07:18.445Z,5.40
2018-12-12T00:09:46.784Z,5.50
2018-12-12T00:12:15.124Z,5.50
2018-12-12T00:14:43.463Z,5.50
2018-12-12T00:17:11.825Z,5.40
2018-12-12T00:19:40.148Z,5.50
2018-12-12T00:22:08.492Z,5.50
2018-12-12T00:24:36.816Z,5.50
2018-12-12T00:27:05.243Z,5.50
2018-12-12T00:29:33.469Z,5.40
2018-12-12T00:32:01.832Z,5.40
2018-12-12T00:34:30.167Z,5.30
2018-12-12T00:36:58.498Z,5.40
2018-12-12T00:39:26.808Z,5.40
2018-12-12T00:41:55.051Z,5.30
2018-12-12T00:44:23.478Z,5.40
2018-12-12T00:46:52.036Z,5.40
2018-12-12T00:49:20.695Z,5.40
2018-12-12T00:51:49.172Z,5.50
2018-12-12T00:54:17.616Z,5.50
2018-12-12T00:56:45.988Z,5.50
2018-12-12T00:59:14.273Z,5.50
2018-12-12T01:01:42.517Z,5.40
2018-12-12T01:04:10.875Z,5.40
2018-12-12T01:06:39.289Z,5.40
2018-12-12T01:09:07.962Z,5.40
2018-12-12T01:11:42.145Z,5.30
2018-12-12T01:14:10.497Z,5.30
2018-12-12T01:16:38.961Z,5.20
2018-12-12T01:19:07.282Z,5.10
2018-12-12T01:21:35.664Z,5.10
2018-12-12T01:24:04.129Z,5.10
2018-12-12T01:26:32.484Z,5.10
2018-12-12T01:29:00.835Z,5.20
2018-12-12T01:31:29.197Z,5.20
2018-12-12T01:33:57.546Z,5.30
2018-12-12T01:36:25.885Z,5.30
2018-12-12T01:38:54.316Z,5.30
2018-12-12T01:41:22.676Z,5.30
2018-12-12T01:43:51.014Z,5.40
2018-12-12T01:46:19.369Z,5.40
2018-12-12T01:48:47.701Z,5.30
2018-12-12T01:51:16.041Z,5.30
2018-12-12T01:53:46.415Z,5.30
2018-12-12T01:56:14.777Z,5.30
2018-12-12T01:58:43.021Z,5.20
2018-12-12T02:01:11.537Z,5.20
2018-12-12T02:03:39.920Z,5.20
2018-12-12T02:06:08.196Z,5.20
2018-12-12T02:08:36.580Z,5.20
2018-12-12T02:11:04.887Z,5.30
2018-12-12T02:13:35.325Z,5.30
2018-12-12T02:16:05.909Z,5.30
2018-12-12T02:18:35.674Z,5.30
2018-12-12T02:21:04.259Z,5.30
2018-12-12T02:23:32.564Z,5.40
2018-12-12T02:26:00.796Z,5.40
2018-12-12T02:28:29.138Z,5.40
2018-12-12T02:30:57.572Z,5.40
2018-12-12T02:33:25.973Z,5.40
2018-12-12T02:35:54.498Z,5.30
2018-12-12T02:38:22.853Z,5.30
2018-12-12T02:40:51.162Z,5.30
2018-12-12T02:43:19.486Z,5.30
2018-12-12T02:45:47.893Z,5.30
2018-12-12T02:48:16.221Z,5.40
2018-12-12T02:50:44.513Z,5.40
2018-12-12T02:53:12.928Z,5.40
2018-12-12T02:55:41.277Z,5.40
2018-12-12T02:58:09.504Z,5.40
2018-12-12T03:00:37.762Z,5.40
2018-12-12T03:03:06.397Z,5.30
2018-12-12T03:05:34.933Z,5.30
2018-12-12T03:08:03.390Z,5.30
2018-12-12T03:10:31.729Z,5.30
2018-12-12T03:13:00.066Z,5.30
2018-12-12T03:15:28.496Z,5.30
2018-12-12T03:17:56.716Z,5.30
2018-12-12T03:20:25.039Z,5.30
2018-12-12T03:22:53.360Z,5.30
2018-12-12T03:25:21.689Z,5.30
2018-12-12T03:27:50.055Z,5.30
2018-12-12T03:30:18.384Z,5.30
2018-12-12T03:32:46.939Z,5.30
2018-12-12T03:35:15.356Z,5.30
2018-12-12T03:37:43.838Z,5.30
2018-12-12T03:40:12.532Z,5.30
2018-12-12T03:42:41.197Z,5.40
2018-12-12T03:45:09.537Z,5.30
2018-12-12T03:47:38.025Z,5.30
2018-12-12T03:50:06.583Z,5.20
2018-12-12T03:52:34.911Z,5.20
2018-12-12T03:55:04.236Z,5.20
2018-12-12T03:57:32.645Z,5.20
2018-12-12T04:00:00.980Z,5.20
2018-12-12T04:02:29.307Z,5.20
2018-12-12T04:04:57.553Z,5.10
2018-12-12T04:07:25.888Z,5.20
2018-12-12T04:09:54.205Z,5.10
2018-12-12T04:12:22.565Z,5.00
2018-12-12T04:14:51.013Z,5.00
2018-12-12T04:17:19.374Z,5.00
2018-12-12T04:19:47.721Z,5.00
2018-12-12T04:22:16.396Z,5.00
2018-12-12T04:24:45.073Z,5.00
2018-12-12T04:27:13.421Z,4.90
2018-12-12T04:29:41.745Z,4.90
2018-12-12T04:32:09.971Z,4.90
2018-12-12T04:34:38.302Z,4.90
2018-12-12T04:37:06.644Z,4.90
2018-12-12T04:39:34.973Z,4.90
2018-12-12T04:42:03.406Z,4.90
2018-12-12T04:44:31.725Z,4.90
2018-12-12T04:47:00.155Z,4.90
2018-12-12T04:49:28.468Z,4.90
2018-12-12T04:51:56.778Z,4.80
2018-12-12T04:54:25.133Z,4.90
2018-12-12T04:56:53.572Z,4.90
2018-12-12T04:59:22.141Z,4.90
2018-12-12T05:01:50.508Z,5.00
2018-12-12T05:04:18.744Z,5.00
2018-12-12T05:06:47.310Z,5.00
2018-12-12T05:09:15.641Z,5.00
2018-12-12T05:11:43.865Z,5.00
2018-12-12T05:14:12.334Z,5.00
2018-12-12T05:16:40.868Z,5.00
2018-12-12T05:19:09.141Z,5.00
2018-12-12T05:21:37.373Z,5.00
2018-12-12T05:24:05.715Z,5.00
2018-12-12T05:26:34.056Z,5.10
2018-12-12T05:29:02.417Z,5.00
2018-12-12T05:31:30.644Z,5.10
2018-12-12T05:33:59.097Z,5.10
2018-12-12T05:36:27.554Z,5.10
2018-12-12T05:38:56.006Z,5.10
2018-12-12T05:41:24.224Z,5.00
2018-12-12T05:43:57.612Z,5.00
2018-12-12T05:46:22.793Z,5.10
2018-12-12T05:48:51.016Z,5.00
2018-12-12T05:51:19.482Z,5.00
2018-12-12T05:53:48.039Z,5.10
2018-12-12T05:56:16.375Z,5.10
2018-12-12T05:58:44.629Z,5.20
2018-12-12T06:01:13.000Z,5.10
2018-12-12T06:03:41.258Z,5.10
2018-12-12T06:06:09.592Z,5.10
2018-12-12T06:08:37.924Z,5.10
2018-12-12T06:11:06.392Z,5.10
2018-12-12T06:13:34.744Z,5.10
2018-12-12T06:16:03.360Z,5.10
2018-12-12T06:18:31.741Z,5.10
2018-12-12T06:21:00.189Z,5.10
2018-12-12T06:23:28.513Z,5.00
2018-12-12T06:25:56.856Z,5.00
2018-12-12T06:28:25.209Z,4.90
2018-12-12T06:30:53.581Z,4.90
2018-12-12T06:33:21.933Z,5.00
2018-12-12T06:35:50.189Z,5.00
2018-12-12T06:38:19.664Z,5.00
2018-12-12T06:40:48.101Z,5.00
2018-12-12T06:43:16.753Z,4.90
2018-12-12T06:45:45.096Z,5.00
2018-12-12T06:48:13.496Z,5.00
2018-12-12T06:50:41.733Z,5.00
2018-12-12T06:53:10.065Z,5.00
2018-12-12T06:55:38.404Z,5.10
2018-12-12T06:58:06.724Z,5.10
2018-12-12T07:00:35.082Z,5.10
2018-12-12T07:03:03.525Z,5.10
2018-12-12T07:05:32.041Z,5.10
2018-12-12T07:08:00.380Z,5.10
2018-12-12T07:10:28.796Z,5.10
2018-12-12T07:12:57.034Z,5.10
2018-12-12T07:15:25.411Z,5.00
2018-12-12T07:17:53.755Z,5.00
2018-12-12T07:20:22.100Z,5.00
2018-12-12T07:22:50.434Z,5.00
2018-12-12T07:25:19.221Z,5.00
2018-12-12T07:27:47.575Z,5.00
2018-12-12T07:30:16.021Z,5.10
2018-12-12T07:32:44.364Z,5.10
2018-12-12T07:35:12.821Z,5.10
2018-12-12T07:37:41.312Z,5.10
2018-12-12T07:40:09.792Z,5.10
2018-12-12T07:42:38.128Z,5.10
2018-12-12T07:45:06.739Z,5.00
2018-12-12T07:47:35.104Z,5.00
2018-12-12T07:50:04.185Z,5.00
2018-12-12T07:52:32.435Z,5.00
2018-12-12T07:55:00.802Z,5.10
2018-12-12T07:57:29.209Z,5.10
2018-12-12T07:59:57.577Z,5.20
2018-12-12T08:02:25.819Z,5.20
2018-12-12T08:04:54.113Z,5.20
2018-12-12T08:07:22.502Z,5.20
2018-12-12T08:09:50.914Z,5.20
2018-12-12T08:12:19.218Z,5.10
2018-12-12T08:14:47.625Z,5.20
2018-12-12T08:17:16.212Z,5.20
2018-12-12T08:19:44.678Z,5.20
2018-12-12T08:22:13.103Z,5.30
2018-12-12T08:24:41.536Z,5.30
2018-12-12T08:27:10.279Z,5.30
2018-12-12T08:29:38.634Z,5.30
2018-12-12T08:32:06.965Z,5.30
2018-12-12T08:34:35.325Z,5.20
2018-12-12T08:37:03.664Z,5.20
2018-12-12T08:39:31.992Z,5.30
2018-12-12T08:42:00.229Z,5.30
2018-12-12T08:44:28.673Z,5.40
2018-12-12T08:46:56.909Z,5.30
2018-12-12T08:49:25.167Z,5.40
2018-12-12T08:51:53.617Z,5.40
2018-12-12T08:54:21.953Z,5.40
2018-12-12T08:56:51.522Z,5.40
2018-12-12T08:59:19.879Z,5.50
2018-12-12T09:01:48.337Z,5.50
2018-12-12T09:04:16.653Z,5.50
2018-12-12T09:06:45.111Z,5.60
2018-12-12T09:09:13.533Z,5.50
2018-12-12T09:11:41.809Z,5.60
2018-12-12T09:14:10.086Z,5.60
2018-12-12T09:16:38.553Z,5.60
2018-12-12T09:19:07.115Z,5.60
2018-12-12T09:21:35.902Z,5.60
2018-12-12T09:24:04.345Z,5.60
2018-12-12T09:26:32.713Z,5.60
2018-12-12T09:29:01.145Z,5.60
2018-12-12T09:31:29.480Z,5.70
2018-12-12T09:33:57.804Z,5.80
2018-12-12T09:36:26.413Z,5.90
2018-12-12T09:38:54.817Z,5.90
2018-12-12T09:41:23.197Z,5.90
2018-12-12T09:43:51.452Z,5.90
2018-12-12T09:46:19.730Z,6.00
2018-12-12T09:48:48.682Z,6.00
2018-12-12T09:51:17.258Z,6.00
2018-12-12T09:53:45.751Z,6.00
2018-12-12T09:56:14.110Z,6.10
2018-12-12T09:58:44.148Z,6.20
2018-12-12T10:01:11.389Z,6.20
2018-12-12T10:03:39.700Z,6.30
2018-12-12T10:06:08.036Z,6.40
2018-12-12T10:08:38.670Z,6.30
2018-12-12T10:11:07.053Z,6.40
2018-12-12T10:13:35.290Z,6.20
2018-12-12T10:16:03.778Z,6.30
2018-12-12T10:18:32.324Z,6.30
2018-12-12T10:21:00.790Z,6.20
2018-12-12T10:23:29.133Z,6.10
2018-12-12T10:25:57.485Z,6.20
2018-12-12T10:28:25.921Z,6.30
2018-12-12T10:30:54.258Z,6.30
2018-12-12T10:33:22.681Z,6.40
2018-12-12T10:35:51.044Z,6.40
2018-12-12T10:38:19.277Z,6.50
2018-12-12T10:40:47.616Z,6.50
2018-12-12T10:43:15.853Z,6.50
2018-12-12T10:45:44.284Z,6.30
2018-12-12T10:48:12.666Z,6.40
2018-12-12T10:50:41.007Z,6.40
2018-12-12T10:53:09.726Z,6.30
2018-12-12T10:55:38.227Z,6.30
2018-12-12T10:58:06.553Z,6.30
2018-12-12T11:00:39.275Z,6.30
2018-12-12T11:03:13.278Z,6.30
2018-12-12T11:05:41.650Z,6.20
2018-12-12T11:08:10.050Z,6.00
2018-12-12T11:10:38.868Z,6.10
2018-12-12T11:13:07.445Z,6.10
2018-12-12T11:15:35.932Z,6.10
2018-12-12T11:18:04.284Z,6.00
2018-12-12T11:20:32.623Z,6.00
2018-12-12T11:23:00.893Z,6.00
2018-12-12T11:25:29.238Z,6.10
2018-12-12T11:27:57.606Z,6.00
2018-12-12T11:30:25.966Z,6.10
2018-12-12T11:32:54.428Z,6.10
2018-12-12T11:35:22.760Z,6.10
2018-12-12T11:37:51.117Z,6.20
2018-12-12T11:40:19.433Z,6.30
2018-12-12T11:42:47.895Z,6.00
2018-12-12T11:45:16.174Z,6.20
2018-12-12T11:47:44.641Z,6.30
2018-12-12T11:50:12.882Z,6.40
2018-12-12T11:52:41.225Z,6.40
2018-12-12T11:55:10.229Z,6.40
2018-12-12T11:57:38.922Z,6.50
2018-12-12T12:00:07.688Z,6.40
2018-12-12T12:02:36.164Z,6.30
2018-12-12T12:05:04.886Z,6.30
2018-12-12T12:07:33.157Z,6.10
2018-12-12T12:10:01.447Z,6.20
2018-12-12T12:12:29.795Z,6.30
2018-12-12T12:14:58.385Z,6.30
2018-12-12T12:17:26.666Z,6.40
2018-12-12T12:19:56.334Z,6.40
2018-12-12T12:22:24.679Z,6.40
2018-12-12T12:24:53.136Z,6.20
2018-12-12T12:27:21.481Z,6.20
2018-12-12T12:29:49.824Z,6.30
2018-12-12T12:32:18.193Z,6.20
2018-12-12T12:34:46.660Z,6.20
2018-12-12T12:37:15.029Z,6.30
2018-12-12T12:39:43.319Z,6.30
2018-12-12T12:42:11.586Z,6.40
2018-12-12T12:44:40.196Z,6.30
2018-12-12T12:47:08.557Z,6.40
2018-12-12T12:49:37.022Z,6.60
2018-12-12T12:52:05.268Z,6.70
2018-12-12T12:54:33.532Z,6.70
2018-12-12T12:57:01.949Z,6.80
2018-12-12T12:59:30.464Z,6.90
2018-12-12T13:01:58.845Z,6.80
2018-12-12T13:04:27.345Z,6.80
2018-12-12T13:06:55.741Z,6.80
2018-12-12T13:09:24.038Z,6.80
2018-12-12T13:11:52.457Z,6.80
2018-12-12T13:14:21.136Z,6.80
2018-12-12T13:16:49.593Z,6.80
2018-12-12T13:19:17.949Z,6.80
2018-12-12T13:21:46.196Z,6.80
2018-12-12T13:24:14.559Z,6.70
2018-12-12T13:26:42.909Z,6.50
2018-12-12T13:29:11.648Z,6.60
2018-12-12T13:31:39.899Z,6.60
2018-12-12T13:34:08.269Z,6.50
2018-12-12T13:36:36.718Z,6.50
2018-12-12T13:39:07.397Z,6.70
2018-12-12T13:41:35.671Z,6.80
2018-12-12T13:44:04.026Z,6.80
2018-12-12T13:46:32.288Z,7.20
2018-12-12T13:49:00.641Z,7.70
2018-12-12T13:51:28.973Z,7.60
2018-12-12T13:53:57.488Z,7.30
2018-12-12T13:56:25.922Z,6.90
2018-12-12T13:58:54.318Z,6.60
2018-12-12T14:01:22.678Z,6.30
2018-12-12T14:03:50.930Z,6.30
2018-12-12T14:06:19.304Z,6.20
2018-12-12T14:08:47.669Z,6.20
2018-12-12T14:11:16.039Z,6.20
2018-12-12T14:13:44.485Z,6.20
2018-12-12T14:16:12.880Z,6.20
2018-12-12T14:18:41.358Z,6.10
2018-12-12T14:21:09.693Z,6.20
2018-12-12T14:23:38.049Z,6.20
2018-12-12T14:26:06.543Z,6.20
2018-12-12T14:28:34.904Z,6.30
2018-12-12T14:31:03.257Z,6.40
2018-12-12T14:33:31.800Z,6.50
2018-12-12T14:36:01.127Z,6.50
2018-12-12T14:38:29.781Z,6.60
2018-12-12T14:40:58.110Z,6.70
2018-12-12T14:43:27.394Z,6.60
2018-12-12T14:45:55.840Z,6.30
2018-12-12T14:48:30.167Z,6.30
2018-12-12T14:50:54.885Z,6.30
2018-12-12T14:53:23.369Z,6.40
2018-12-12T14:55:51.691Z,6.30
2018-12-12T14:58:20.041Z,6.30
2018-12-12T15:00:48.281Z,6.10
2018-12-12T15:03:16.629Z,5.70
2018-12-12T15:05:44.864Z,5.40
2018-12-12T15:08:13.112Z,5.20
2018-12-12T15:10:41.461Z,5.20
2018-12-12T15:13:09.832Z,5.10
2018-12-12T15:15:38.080Z,5.10
2018-12-12T15:18:06.476Z,5.10
2018-12-12T15:20:34.726Z,5.10
2018-12-12T15:23:03.079Z,5.20
2018-12-12T15:25:31.440Z,5.10
2018-12-12T15:27:59.809Z,5.10
2018-12-12T15:30:28.458Z,5.00
2018-12-12T15:32:56.796Z,5.00
2018-12-12T15:35:25.145Z,4.80
2018-12-12T15:37:53.364Z,4.80
2018-12-12T15:40:21.713Z,4.80
2018-12-12T15:42:50.036Z,4.70
2018-12-12T15:45:18.372Z,4.70
2018-12-12T15:47:46.706Z,4.50
2018-12-12T15:50:15.066Z,4.50
2018-12-12T15:52:43.517Z,4.50
2018-12-12T15:55:11.994Z,4.50
2018-12-12T15:57:40.448Z,4.50
2018-12-12T16:00:09.007Z,4.50
2018-12-12T16:02:37.682Z,4.40
2018-12-12T16:05:06.141Z,4.50
2018-12-12T16:07:34.509Z,4.50
2018-12-12T16:10:03.501Z,4.50
2018-12-12T16:12:31.986Z,4.50
2018-12-12T16:15:00.528Z,4.40
2018-12-12T16:17:28.854Z,4.50
2018-12-12T16:19:57.309Z,4.50
2018-12-12T16:22:25.756Z,4.60
2018-12-12T16:24:54.018Z,4.50
2018-12-12T16:27:23.313Z,4.40
2018-12-12T16:29:51.579Z,4.50
2018-12-12T16:32:19.941Z,4.50
2018-12-12T16:34:48.264Z,4.60
2018-12-12T16:37:16.928Z,4.80
2018-12-12T16:39:45.256Z,4.90
2018-12-12T16:42:14.598Z,4.90
2018-12-12T16:44:42.963Z,4.90
2018-12-12T16:47:11.196Z,4.90
2018-12-12T16:49:39.416Z,5.00
2018-12-12T16:52:07.870Z,5.00
2018-12-12T16:54:36.233Z,5.10
2018-12-12T16:57:04.780Z,5.10
2018-12-12T16:59:33.133Z,5.10
2018-12-12T17:02:01.477Z,5.10
2018-12-12T17:04:29.705Z,5.20
2018-12-12T17:06:58.013Z,5.20
2018-12-12T17:09:26.505Z,5.30
2018-12-12T17:11:54.857Z,5.40
2018-12-12T17:14:25.967Z,5.40
2018-12-12T17:16:54.502Z,5.40
2018-12-12T17:19:23.069Z,5.50
2018-12-12T17:21:51.421Z,5.40
2018-12-12T17:24:19.790Z,5.60
2018-12-12T17:26:48.148Z,5.60
2018-12-12T17:29:16.500Z,5.50
2018-12-12T17:31:44.845Z,5.50
2018-12-12T17:34:15.322Z,5.50
2018-12-12T17:36:43.562Z,5.50
2018-12-12T17:39:11.803Z,5.60
2018-12-12T17:41:40.411Z,5.60
2018-12-12T17:44:08.802Z,5.30
2018-12-12T17:46:37.169Z,5.40
2018-12-12T17:49:05.534Z,5.50
2018-12-12T17:51:33.882Z,5.60
2018-12-12T17:54:02.212Z,5.60
2018-12-12T17:56:30.485Z,5.50
2018-12-12T17:58:58.925Z,5.50
2018-12-12T18:01:27.585Z,5.40
2018-12-12T18:03:55.932Z,5.50
2018-12-12T18:06:24.514Z,5.50
2018-12-12T18:08:53.025Z,5.60
2018-12-12T18:11:21.404Z,5.50
2018-12-12T18:13:49.740Z,5.30
2018-12-12T18:16:18.081Z,5.30
2018-12-12T18:18:46.415Z,5.40
2018-12-12T18:21:14.865Z,5.30
2018-12-12T18:23:43.152Z,5.30
2018-12-12T18:26:11.680Z,5.40
2018-12-12T18:28:40.017Z,5.30
2018-12-12T18:31:08.349Z,5.30
2018-12-12T18:33:36.782Z,5.40
2018-12-12T18:36:05.386Z,5.40
2018-12-12T18:38:33.871Z,5.40
2018-12-12T18:41:02.348Z,5.30
2018-12-12T18:43:30.721Z,5.40
2018-12-12T18:45:59.073Z,5.40
2018-12-12T18:48:27.398Z,5.40
2018-12-12T18:50:55.665Z,5.30
2018-12-12T18:53:23.920Z,5.10
2018-12-12T18:55:52.306Z,5.10
2018-12-12T18:58:20.645Z,5.20
2018-12-12T19:00:49.060Z,5.20
2018-12-12T19:03:17.432Z,5.20
2018-12-12T19:05:45.970Z,5.10
2018-12-12T19:08:15.228Z,5.10
2018-12-12T19:10:43.592Z,5.20
2018-12-12T19:13:11.993Z,5.20
2018-12-12T19:15:40.308Z,5.20
2018-12-12T19:18:08.627Z,5.30
2018-12-12T19:20:37.008Z,5.30
2018-12-12T19:23:05.573Z,5.40
2018-12-12T19:25:33.986Z,5.50
2018-12-12T19:28:02.336Z,5.50
2018-12-12T19:30:30.680Z,5.40
2018-12-12T19:32:58.948Z,5.30
2018-12-12T19:35:27.304Z,5.40
2018-12-12T19:37:56.321Z,5.40
2018-12-12T19:40:24.686Z,5.40
2018-12-12T19:42:53.056Z,5.20
2018-12-12T19:45:21.614Z,5.30
2018-12-12T19:47:49.841Z,5.10
2018-12-12T19:50:18.088Z,5.20
2018-12-12T19:52:46.679Z,5.10
2018-12-12T19:55:14.933Z,5.20
2018-12-12T19:57:45.413Z,5.30
2018-12-12T20:00:13.964Z,5.20
2018-12-12T20:02:42.318Z,5.10
2018-12-12T20:05:10.778Z,5.10
2018-12-12T20:07:39.061Z,5.20
2018-12-12T20:10:07.640Z,5.30
2018-12-12T20:12:36.073Z,5.10
2018-12-12T20:15:05.494Z,5.10
2018-12-12T20:17:34.153Z,5.20
2018-12-12T20:20:04.160Z,5.10
2018-12-12T20:22:32.589Z,5.10
2018-12-12T20:25:00.952Z,5.10
2018-12-12T20:27:31.200Z,5.10
2018-12-12T20:29:59.517Z,5.10
2018-12-12T20:32:27.789Z,5.10
2018-12-12T20:34:56.187Z,5.10
2018-12-12T20:37:24.761Z,5.20
2018-12-12T20:39:53.233Z,5.20
2018-12-12T20:42:21.541Z,5.20
2018-12-12T20:44:50.057Z,5.20
2018-12-12T20:47:18.396Z,5.20
2018-12-12T20:49:46.745Z,5.10
2018-12-12T20:52:15.195Z,5.10
2018-12-12T20:54:43.445Z,5.20
2018-12-12T20:57:11.914Z,5.20
2018-12-12T20:59:40.201Z,5.10
2018-12-12T21:02:08.697Z,5.10
2018-12-12T21:04:37.069Z,5.10
2018-12-12T21:07:05.536Z,5.00
2018-12-12T21:09:33.872Z,5.00
2018-12-12T21:12:02.434Z,4.90
2018-12-12T21:14:30.924Z,4.90
2018-12-12T21:16:59.329Z,4.90
2018-12-12T21:19:27.792Z,5.00
2018-12-12T21:21:56.115Z,5.10
2018-12-12T21:24:24.541Z,5.10
2018-12-12T21:26:52.869Z,5.10
2018-12-12T21:29:21.375Z,5.10
2018-12-12T21:31:49.927Z,5.10
2018-12-12T21:34:18.164Z,5.10
2018-12-12T21:36:46.445Z,5.10
2018-12-12T21:39:14.873Z,5.00
2018-12-12T21:41:43.111Z,5.00
2018-12-12T21:44:11.320Z,5.00
2018-12-12T21:46:39.690Z,5.00
2018-12-12T21:49:07.932Z,4.90
2018-12-12T21:51:36.446Z,4.80
2018-12-12T21:54:05.033Z,4.80
2018-12-12T21:56:33.404Z,4.90
2018-12-12T21:59:01.753Z,4.90
2018-12-12T22:01:30.116Z,4.90
2018-12-12T22:03:58.661Z,5.00
2018-12-12T22:06:27.118Z,5.00
2018-12-12T22:08:55.708Z,5.00
2018-12-12T22:11:24.033Z,5.10
2018-12-12T22:13:52.687Z,5.10
2018-12-12T22:16:21.025Z,5.20
2018-12-12T22:18:49.276Z,5.20
2018-12-12T22:21:18.521Z,5.10
2018-12-12T22:23:47.414Z,5.10
2018-12-12T22:26:15.782Z,5.00
2018-12-12T22:28:44.124Z,5.00
2018-12-12T22:31:12.455Z,4.90
2018-12-12T22:33:41.073Z,4.90
2018-12-12T22:36:14.174Z,4.90
2018-12-12T22:38:39.697Z,5.00
2018-12-12T22:41:07.952Z,4.90
2018-12-12T22:43:36.896Z,4.90
2018-12-12T22:46:05.257Z,4.90
2018-12-12T22:48:33.501Z,5.00
2018-12-12T22:51:01.949Z,5.00
2018-12-12T22:53:30.329Z,5.00
2018-12-12T22:55:58.710Z,5.00
2018-12-12T22:58:27.133Z,5.00
2018-12-12T23:01:01.246Z,5.00
2018-12-12T23:03:29.598Z,4.90
2018-12-12T23:05:58.268Z,4.80
2018-12-12T23:08:26.616Z,4.80
2018-12-12T23:10:54.855Z,4.80
2018-12-12T23:13:23.244Z,4.80
2018-12-12T23:15:51.593Z,4.90
2018-12-12T23:18:19.824Z,4.80
2018-12-12T23:20:48.149Z,4.80
2018-12-12T23:23:23.115Z,4.80
2018-12-12T23:25:50.432Z,4.90
2018-12-12T23:28:18.706Z,4.90
2018-12-12T23:30:45.921Z,5.00
2018-12-12T23:33:13.136Z,5.00
2018-12-12T23:35:41.587Z,5.10
2018-12-12T23:38:10.040Z,5.10
2018-12-12T23:40:38.364Z,5.00
2018-12-12T23:43:06.836Z,5.00
2018-12-12T23:45:35.384Z,5.00
2018-12-12T23:48:04.747Z,4.90
2018-12-12T23:50:33.100Z,5.00
2018-12-12T23:53:01.440Z,5.00
2018-12-12T23:55:29.694Z,5.00
2018-12-12T23:58:03.802Z,5.00
